createdAt,value
2023-01-11T00:02:26.886Z,100497.84
2023-01-11T00:05:40.935Z,100492.59
2023-01-11T00:08:48.006Z,100487.81
2023-01-11T00:11:55.957Z,100492.22
2023-01-11T00:15:02.662Z,100495.81
2023-01-11T00:18:11.017Z,100497.50
2023-01-11T00:21:16.354Z,100506.53
2023-01-11T00:24:24.525Z,100496.88
2023-01-11T00:27:30.620Z,100483.06
2023-01-11T00:30:39.359Z,100495.44
2023-01-11T00:33:46.427Z,100497.50
2023-01-11T00:36:54.989Z,100495.69
2023-01-11T00:40:02.027Z,100497.59
2023-01-11T00:43:29.777Z,100504.28
2023-01-11T00:46:57.483Z,100497.34
2023-01-11T00:50:08.996Z,100492.00
2023-01-11T00:53:17.164Z,100517.97
2023-01-11T00:56:29.410Z,100506.06
2023-01-11T00:59:42.456Z,100517.28
2023-01-11T01:02:52.151Z,100518.94
2023-01-11T01:05:57.744Z,100513.94
2023-01-11T01:09:07.856Z,100527.75
2023-01-11T01:12:14.169Z,100543.38
2023-01-11T01:15:22.104Z,100533.94
2023-01-11T01:18:29.865Z,100538.34
2023-01-11T01:21:36.583Z,100531.19
2023-01-11T01:24:43.568Z,100537.38
2023-01-11T01:27:52.105Z,100542.41
2023-01-11T01:30:58.895Z,100538.34
2023-01-11T01:34:08.651Z,100556.06
2023-01-11T01:37:13.336Z,100555.47
2023-01-11T01:40:20.259Z,100546.75
2023-01-11T01:43:47.664Z,100548.94
2023-01-11T01:46:59.827Z,100555.13
2023-01-11T01:50:19.493Z,100560.94
2023-01-11T01:53:33.023Z,100553.09
2023-01-11T01:56:44.641Z,100550.31
2023-01-11T01:59:58.002Z,100553.28
2023-01-11T02:03:05.066Z,100552.28
2023-01-11T02:06:11.576Z,100550.81
2023-01-11T02:09:25.770Z,100550.31
2023-01-11T02:12:41.956Z,100564.75
2023-01-11T02:15:48.762Z,100568.19
2023-01-11T02:18:57.930Z,100572.81
2023-01-11T02:22:43.451Z,100569.37
2023-01-11T02:26:08.659Z,100566.75
2023-01-11T02:29:17.119Z,100574.69
2023-01-11T02:32:32.258Z,100578.00
2023-01-11T02:36:05.880Z,100575.38
2023-01-11T02:39:18.940Z,100584.28
2023-01-11T02:42:57.317Z,100589.66
2023-01-11T02:46:22.331Z,100588.81
2023-01-11T02:49:31.600Z,100589.75
2023-01-11T02:52:52.882Z,100588.66
2023-01-11T02:56:00.552Z,100576.25
2023-01-11T02:59:10.546Z,100580.66
2023-01-11T03:02:15.683Z,100585.34
2023-01-11T03:05:23.644Z,100577.22
2023-01-11T03:08:39.029Z,100579.44
2023-01-11T03:12:21.282Z,100593.72
2023-01-11T03:15:49.797Z,100590.88
2023-01-11T03:19:09.324Z,100591.53
2023-01-11T03:22:30.147Z,100605.47
2023-01-11T03:25:57.409Z,100611.88
2023-01-11T03:29:13.559Z,100616.78
2023-01-11T03:32:27.396Z,100622.34
2023-01-11T03:35:40.909Z,100641.03
2023-01-11T03:38:52.621Z,100636.28
2023-01-11T03:42:02.444Z,100638.25
2023-01-11T03:45:10.236Z,100642.59
2023-01-11T03:48:25.288Z,100631.56
2023-01-11T03:51:36.105Z,100627.06
2023-01-11T03:54:44.351Z,100616.37
2023-01-11T03:57:52.927Z,100609.25
2023-01-11T04:01:01.850Z,100595.19
2023-01-11T04:04:11.197Z,100585.22
2023-01-11T04:07:18.512Z,100589.66
2023-01-11T04:10:28.868Z,100594.25
2023-01-11T04:13:36.742Z,100600.75
2023-01-11T04:16:45.153Z,100593.03
2023-01-11T04:19:53.475Z,100603.37
2023-01-11T04:23:00.740Z,100605.28
2023-01-11T04:26:07.285Z,100610.28
2023-01-11T04:29:14.362Z,100610.34
2023-01-11T04:32:21.257Z,100613.56
2023-01-11T04:35:30.344Z,100620.56
2023-01-11T04:38:38.277Z,100619.75
2023-01-11T04:42:05.014Z,100600.38
2023-01-11T04:45:10.946Z,100596.50
2023-01-11T04:48:19.488Z,100618.03
2023-01-11T04:51:29.754Z,100626.22
2023-01-11T04:54:36.323Z,100641.09
2023-01-11T04:57:45.322Z,100657.22
2023-01-11T05:00:59.054Z,100651.47
2023-01-11T05:04:05.400Z,100634.09
2023-01-11T05:07:12.496Z,100637.88
2023-01-11T05:10:20.795Z,100637.88
2023-01-11T05:13:42.880Z,100648.06
2023-01-11T05:16:50.157Z,100654.22
2023-01-11T05:20:00.484Z,100623.06
2023-01-11T05:23:08.692Z,100632.66
2023-01-11T05:26:16.139Z,100641.47
2023-01-11T05:29:23.870Z,100641.03
2023-01-11T05:32:30.911Z,100645.34
2023-01-11T05:35:37.922Z,100655.41
2023-01-11T05:38:47.874Z,100662.09
2023-01-11T05:41:54.808Z,100648.91
2023-01-11T05:45:20.345Z,100646.00
2023-01-11T05:48:25.537Z,100639.69
2023-01-11T05:51:32.886Z,100624.22
2023-01-11T05:54:37.817Z,100633.84
2023-01-11T05:57:42.510Z,100644.75
2023-01-11T06:00:52.102Z,100641.06
2023-01-11T06:03:57.647Z,100628.31
2023-01-11T06:07:02.770Z,100627.78
2023-01-11T06:10:10.706Z,100622.88
2023-01-11T06:13:28.808Z,100623.47
2023-01-11T06:16:34.461Z,100622.31
2023-01-11T06:19:42.514Z,100624.22
2023-01-11T06:22:47.161Z,100631.47
2023-01-11T06:25:53.322Z,100636.25
2023-01-11T06:28:59.541Z,100646.41
2023-01-11T06:32:03.558Z,100633.22
2023-01-11T06:35:07.549Z,100619.94
2023-01-11T06:38:13.040Z,100629.16
2023-01-11T06:41:17.773Z,100639.63
2023-01-11T06:44:22.508Z,100639.91
2023-01-11T06:47:27.887Z,100617.53
2023-01-11T06:50:36.192Z,100638.78
2023-01-11T06:53:43.973Z,100653.50
2023-01-11T06:56:47.516Z,100653.19
2023-01-11T06:59:51.989Z,100670.44
2023-01-11T07:02:55.691Z,100670.13
2023-01-11T07:05:59.833Z,100665.88
2023-01-11T07:09:05.173Z,100681.16
2023-01-11T07:12:09.316Z,100686.47
2023-01-11T07:15:13.309Z,100689.09
2023-01-11T07:18:17.239Z,100690.47
2023-01-11T07:21:20.137Z,100702.25
2023-01-11T07:24:24.890Z,100708.41
2023-01-11T07:27:28.992Z,100719.94
2023-01-11T07:30:44.589Z,100727.56
2023-01-11T07:33:56.571Z,100724.06
2023-01-11T07:37:01.384Z,100720.28
2023-01-11T07:40:05.651Z,100719.31
2023-01-11T07:43:15.032Z,100731.91
2023-01-11T07:46:19.273Z,100730.66
2023-01-11T07:49:24.848Z,100729.78
2023-01-11T07:52:33.478Z,100728.56
2023-01-11T07:55:40.115Z,100717.03
2023-01-11T07:58:44.568Z,100716.81
2023-01-11T08:01:49.504Z,100717.31
2023-01-11T08:04:53.734Z,100712.28
2023-01-11T08:07:56.937Z,100711.22
2023-01-11T08:11:19.942Z,100720.97
2023-01-11T08:14:42.395Z,100733.03
2023-01-11T08:17:47.268Z,100735.94
2023-01-11T08:20:55.555Z,100733.13
2023-01-11T08:24:00.690Z,100734.69
2023-01-11T08:27:05.268Z,100735.44
2023-01-11T08:30:10.169Z,100728.09
2023-01-11T08:33:13.879Z,100730.91
2023-01-11T08:36:17.791Z,100735.41
2023-01-11T08:39:21.677Z,100740.34
2023-01-11T08:42:25.421Z,100751.16
2023-01-11T08:45:28.989Z,100752.69
2023-01-11T08:48:32.843Z,100751.66
2023-01-11T08:51:37.644Z,100740.53
2023-01-11T08:54:42.746Z,100733.91
2023-01-11T08:57:46.866Z,100744.47
2023-01-11T09:00:52.508Z,100748.78
2023-01-11T09:03:56.708Z,100758.22
2023-01-11T09:07:02.192Z,100746.44
2023-01-11T09:10:06.169Z,100749.00
2023-01-11T09:13:11.177Z,100757.16
2023-01-11T09:16:14.696Z,100753.38
2023-01-11T09:19:19.020Z,100750.91
2023-01-11T09:22:23.252Z,100752.63
2023-01-11T09:25:27.610Z,100747.44
2023-01-11T09:28:31.459Z,100758.22
2023-01-11T09:31:37.523Z,100742.06
2023-01-11T09:34:45.342Z,100744.09
2023-01-11T09:37:51.603Z,100744.75
2023-01-11T09:41:04.733Z,100736.78
2023-01-11T09:44:17.211Z,100732.63
2023-01-11T09:47:34.343Z,100735.59
2023-01-11T09:50:42.785Z,100739.66
2023-01-11T09:53:52.863Z,100742.16
2023-01-11T09:57:03.668Z,100749.91
2023-01-11T10:00:15.189Z,100738.75
2023-01-11T10:03:35.782Z,100735.75
2023-01-11T10:06:51.562Z,100725.03
2023-01-11T10:18:25.377Z,100707.03
2023-01-11T10:20:35.610Z,100692.25
2023-01-11T10:23:58.445Z,100696.66
2023-01-11T10:27:08.276Z,100700.31
2023-01-11T10:30:35.033Z,100701.09
2023-01-11T10:33:50.291Z,100695.19
2023-01-11T10:37:18.488Z,100712.31
2023-01-11T10:40:59.146Z,100701.50
2023-01-11T10:44:10.324Z,100699.97
2023-01-11T10:47:20.680Z,100699.34
2023-01-11T10:50:28.197Z,100698.06
2023-01-11T10:53:34.996Z,100704.31
2023-01-11T10:57:02.783Z,100698.94
2023-01-11T11:00:11.600Z,100702.94
2023-01-11T11:03:25.659Z,100701.00
2023-01-11T11:06:41.989Z,100700.44
2023-01-11T11:09:54.404Z,100701.47
2023-01-11T11:13:08.903Z,100697.75
2023-01-11T11:16:23.255Z,100701.94
2023-01-11T11:19:32.697Z,100687.94
2023-01-11T11:22:39.544Z,100675.97
2023-01-11T11:25:47.027Z,100665.41
2023-01-11T11:29:07.122Z,100662.75
2023-01-11T11:32:18.672Z,100666.12
2023-01-11T11:35:40.537Z,100659.06
2023-01-11T11:39:02.562Z,100657.13
2023-01-11T11:42:15.478Z,100659.62
2023-01-11T11:45:18.737Z,100650.19
2023-01-11T11:48:23.250Z,100654.91
2023-01-11T11:51:27.781Z,100650.75
2023-01-11T11:54:31.364Z,100664.22
2023-01-11T11:57:38.796Z,100665.47
2023-01-11T12:00:47.878Z,100659.19
2023-01-11T12:03:53.415Z,100659.38
2023-01-11T12:07:06.750Z,100664.22
2023-01-11T12:10:14.418Z,100661.41
2023-01-11T12:13:33.499Z,100660.44
2023-01-11T12:16:41.119Z,100662.97
2023-01-11T12:19:48.053Z,100655.06
2023-01-11T12:23:09.203Z,100658.22
2023-01-11T12:26:15.676Z,100664.00
2023-01-11T12:29:39.782Z,100658.88
2023-01-11T12:33:02.474Z,100667.63
2023-01-11T12:36:09.818Z,100676.25
2023-01-11T12:39:31.896Z,100676.94
2023-01-11T12:42:38.538Z,100670.72
2023-01-11T12:46:05.448Z,100672.69
2023-01-11T12:49:16.661Z,100669.22
2023-01-11T12:52:45.252Z,100663.69
2023-01-11T12:55:57.412Z,100673.59
2023-01-11T12:59:00.206Z,100676.31
2023-01-11T13:02:21.748Z,100671.03
2023-01-11T13:05:27.130Z,100665.41
2023-01-11T13:08:30.745Z,100655.69
2023-01-11T13:11:52.462Z,100648.59
2023-01-11T13:15:09.807Z,100662.91
2023-01-11T13:18:19.850Z,100656.97
2023-01-11T13:21:34.718Z,100664.28
2023-01-11T13:24:40.679Z,100655.41
2023-01-11T13:27:45.821Z,100657.03
2023-01-11T13:30:50.918Z,100662.22
2023-01-11T13:33:58.258Z,100666.00
2023-01-11T13:37:04.633Z,100671.16
2023-01-11T13:40:08.876Z,100678.09
2023-01-11T13:43:20.277Z,100670.59
2023-01-11T13:46:30.597Z,100673.28
2023-01-11T13:49:54.070Z,100683.16
2023-01-11T13:53:24.710Z,100688.16
2023-01-11T13:56:40.789Z,100670.53
2023-01-11T13:59:47.443Z,100667.37
2023-01-11T14:02:57.112Z,100674.03
2023-01-11T14:06:07.855Z,100673.38
2023-01-11T14:09:20.748Z,100681.13
2023-01-11T14:12:34.548Z,100679.88
2023-01-11T14:15:45.368Z,100676.84
2023-01-11T14:19:26.081Z,100681.44
2023-01-11T14:22:29.663Z,100680.59
2023-01-11T14:25:39.746Z,100668.13
2023-01-11T14:28:49.110Z,100654.22
2023-01-11T14:32:04.908Z,100660.75
2023-01-11T14:35:14.481Z,100661.41
2023-01-11T14:38:28.571Z,100652.66
2023-01-11T14:41:36.353Z,100672.22
2023-01-11T14:44:54.025Z,100670.97
2023-01-11T14:48:16.653Z,100665.53
2023-01-11T14:51:33.363Z,100668.56
2023-01-11T14:54:40.251Z,100661.47
2023-01-11T14:57:59.949Z,100655.75
2023-01-11T15:01:09.613Z,100664.28
2023-01-11T15:04:25.201Z,100659.88
2023-01-11T15:07:30.282Z,100652.19
2023-01-11T15:10:35.842Z,100654.53
2023-01-11T15:13:50.409Z,100657.56
2023-01-11T15:17:16.211Z,100654.91
2023-01-11T15:20:21.944Z,100649.63
2023-01-11T15:23:28.308Z,100644.53
2023-01-11T15:26:48.066Z,100646.31
2023-01-11T15:29:57.869Z,100669.09
2023-01-11T15:33:18.017Z,100665.59
2023-01-11T15:36:26.745Z,100664.09
2023-01-11T15:39:46.293Z,100669.12
2023-01-11T15:42:49.979Z,100666.50
2023-01-11T15:46:22.782Z,100662.19
2023-01-11T15:49:35.344Z,100667.37
2023-01-11T15:52:39.136Z,100659.16
2023-01-11T15:56:02.406Z,100656.22
2023-01-11T15:59:32.032Z,100660.50
2023-01-11T16:02:55.932Z,100658.56
2023-01-11T16:06:09.926Z,100664.81
2023-01-11T16:09:33.570Z,100670.81
2023-01-11T16:12:57.218Z,100665.62
2023-01-11T16:16:18.301Z,100663.94
2023-01-11T16:19:28.180Z,100652.75
2023-01-11T16:22:36.139Z,100652.97
2023-01-11T16:25:44.519Z,100659.47
2023-01-11T16:28:52.965Z,100654.56
2023-01-11T16:32:00.930Z,100660.63
2023-01-11T16:35:18.710Z,100663.03
2023-01-11T16:38:26.532Z,100664.53
2023-01-11T16:41:42.520Z,100661.78
2023-01-11T16:44:49.797Z,100666.69
2023-01-11T16:48:05.727Z,100655.59
2023-01-11T16:51:18.061Z,100664.63
2023-01-11T16:54:29.003Z,100655.31
2023-01-11T16:57:41.606Z,100657.22
2023-01-11T17:00:57.175Z,100661.34
2023-01-11T17:04:07.254Z,100655.84
2023-01-11T17:07:23.650Z,100666.34
2023-01-11T17:10:31.477Z,100661.22
2023-01-11T17:13:54.786Z,100667.97
2023-01-11T17:17:04.645Z,100666.78
2023-01-11T17:20:29.931Z,100667.44
2023-01-11T17:23:40.008Z,100671.75
2023-01-11T17:26:48.540Z,100668.47
2023-01-11T17:29:58.649Z,100663.19
2023-01-11T17:33:04.422Z,100664.84
2023-01-11T17:36:09.934Z,100650.50
2023-01-11T17:39:32.216Z,100658.53
2023-01-11T17:42:58.289Z,100670.13
2023-01-11T17:46:07.397Z,100681.69
2023-01-11T17:49:27.643Z,100675.47
2023-01-11T17:52:53.871Z,100677.78
2023-01-11T17:56:03.086Z,100673.63
2023-01-11T17:59:12.747Z,100682.03
2023-01-11T18:02:21.121Z,100684.69
2023-01-11T18:05:32.623Z,100681.06
2023-01-11T18:08:40.899Z,100687.03
2023-01-11T18:11:49.949Z,100692.38
2023-01-11T18:14:59.081Z,100693.16
2023-01-11T18:18:29.274Z,100682.53
2023-01-11T18:21:40.875Z,100698.84
2023-01-11T18:24:55.128Z,100699.00
2023-01-11T18:28:15.552Z,100699.19
2023-01-11T18:31:23.858Z,100704.38
2023-01-11T18:34:31.990Z,100708.78
2023-01-11T18:37:40.743Z,100702.84
2023-01-11T18:40:49.121Z,100705.28
2023-01-11T18:43:58.918Z,100699.28
2023-01-11T18:47:14.418Z,100702.13
2023-01-11T18:50:22.379Z,100710.53
2023-01-11T18:53:30.882Z,100716.09
2023-01-11T18:56:38.807Z,100716.81
2023-01-11T18:59:44.842Z,100710.88
2023-01-11T19:02:54.221Z,100717.44
2023-01-11T19:06:01.066Z,100716.91
2023-01-11T19:09:09.557Z,100721.63
2023-01-11T19:12:18.673Z,100713.78
2023-01-11T19:15:25.140Z,100720.56
2023-01-11T19:18:34.120Z,100733.31
2023-01-11T19:21:42.158Z,100729.03
2023-01-11T19:24:48.877Z,100727.66
2023-01-11T19:27:57.920Z,100720.94
2023-01-11T19:31:11.385Z,100732.25
2023-01-11T19:34:20.037Z,100744.00
2023-01-11T19:37:30.249Z,100754.06
2023-01-11T19:40:38.153Z,100749.03
2023-01-11T19:43:47.007Z,100748.31
2023-01-11T19:47:00.329Z,100751.63
2023-01-11T19:50:13.069Z,100757.47
2023-01-11T19:53:21.848Z,100755.78
2023-01-11T19:56:27.392Z,100759.63
2023-01-11T19:59:34.887Z,100751.47
2023-01-11T20:02:39.592Z,100760.91
2023-01-11T20:05:46.543Z,100771.22
2023-01-11T20:08:52.820Z,100773.38
2023-01-11T20:12:01.553Z,100772.31
2023-01-11T20:15:06.808Z,100768.34
2023-01-11T20:18:13.479Z,100763.41
2023-01-11T20:21:20.363Z,100755.13
2023-01-11T20:24:30.772Z,100748.41
2023-01-11T20:27:36.532Z,100757.47
2023-01-11T20:30:42.896Z,100750.56
2023-01-11T20:33:48.379Z,100760.44
2023-01-11T20:36:55.387Z,100768.84
2023-01-11T20:40:03.209Z,100763.09
2023-01-11T20:43:12.787Z,100766.91
2023-01-11T20:46:21.919Z,100769.81
2023-01-11T20:49:30.394Z,100768.34
2023-01-11T20:52:38.011Z,100770.19
2023-01-11T20:55:44.794Z,100767.31
2023-01-11T20:58:53.038Z,100766.13
2023-01-11T21:01:58.884Z,100765.56
2023-01-11T21:05:07.527Z,100771.81
2023-01-11T21:08:13.272Z,100779.53
2023-01-11T21:11:19.757Z,100783.19
2023-01-11T21:14:24.276Z,100792.16
2023-01-11T21:17:29.115Z,100795.75
2023-01-11T21:20:36.764Z,100798.28
2023-01-11T21:23:42.773Z,100788.12
2023-01-11T21:26:53.060Z,100784.75
2023-01-11T21:29:57.300Z,100785.87
2023-01-11T21:33:03.137Z,100790.25
2023-01-11T21:36:11.320Z,100793.06
2023-01-11T21:39:18.887Z,100802.94
2023-01-11T21:42:24.592Z,100814.56
2023-01-11T21:45:31.463Z,100814.75
2023-01-11T21:48:39.119Z,100812.03
2023-01-11T21:51:47.134Z,100811.41
2023-01-11T21:54:54.513Z,100819.34
2023-01-11T21:58:04.934Z,100815.63
2023-01-11T22:01:13.054Z,100815.00
2023-01-11T22:04:22.490Z,100818.81
2023-01-11T22:07:31.639Z,100819.72
2023-01-11T22:10:37.383Z,100820.66
2023-01-11T22:13:43.007Z,100818.31
2023-01-11T22:16:49.488Z,100820.84
2023-01-11T22:19:58.057Z,100830.88
2023-01-11T22:23:08.659Z,100817.31
2023-01-11T22:26:19.629Z,100823.06
2023-01-11T22:29:29.643Z,100823.37
2023-01-11T22:32:37.433Z,100818.78
2023-01-11T22:35:43.995Z,100821.00
2023-01-11T22:38:48.311Z,100824.06
2023-01-11T22:41:54.365Z,100818.34
2023-01-11T22:44:59.122Z,100817.78
2023-01-11T22:48:08.571Z,100831.84
2023-01-11T22:51:13.531Z,100827.75
2023-01-11T22:54:23.119Z,100831.34
2023-01-11T22:57:34.444Z,100835.91
2023-01-11T23:00:41.492Z,100838.28
2023-01-11T23:03:48.227Z,100836.81
2023-01-11T23:06:54.608Z,100835.88
2023-01-11T23:10:02.478Z,100830.19
2023-01-11T23:13:30.631Z,100831.34
2023-01-11T23:16:38.225Z,100825.38
2023-01-11T23:19:49.502Z,100831.13
2023-01-11T23:23:00.153Z,100829.97
2023-01-11T23:26:13.014Z,100834.72
2023-01-11T23:29:20.023Z,100826.97
2023-01-11T23:32:28.764Z,100840.94
2023-01-11T23:35:33.986Z,100820.69
2023-01-11T23:38:42.011Z,100817.34
2023-01-11T23:42:08.775Z,100824.97
2023-01-11T23:45:14.696Z,100827.66
2023-01-11T23:48:21.697Z,100830.47
2023-01-11T23:51:29.648Z,100824.69
2023-01-11T23:54:36.503Z,100827.75
2023-01-11T23:58:03.266Z,100822.03
